sensor_id;sensor_type;location;lat;lon;timestamp;P1;durP1;ratioP1;P2;durP2;ratioP2
9364;SDS011;4722;49.340;9.800;2022-11-21T00:00:23;8.77;;;0.65;;
9364;SDS011;4722;49.340;9.800;2022-11-21T00:02:49;0.60;;;0.38;;
9364;SDS011;4722;49.340;9.800;2022-11-21T00:05:15;0.70;;;0.32;;
9364;SDS011;4722;49.340;9.800;2022-11-21T00:07:41;0.50;;;0.32;;
9364;SDS011;4722;49.340;9.800;2022-11-21T00:10:09;15.00;;;0.70;;
9364;SDS011;4722;49.340;9.800;2022-11-21T00:12:35;0.88;;;0.50;;
9364;SDS011;4722;49.340;9.800;2022-11-21T00:15:02;2.65;;;0.43;;
9364;SDS011;4722;49.340;9.800;2022-11-21T00:17:28;9.10;;;0.68;;
9364;SDS011;4722;49.340;9.800;2022-11-21T00:19:54;5.88;;;1.00;;
9364;SDS011;4722;49.340;9.800;2022-11-21T00:22:19;0.98;;;0.50;;
9364;SDS011;4722;49.340;9.800;2022-11-21T00:24:45;4.07;;;0.60;;
9364;SDS011;4722;49.340;9.800;2022-11-21T00:27:11;2.55;;;0.55;;
9364;SDS011;4722;49.340;9.800;2022-11-21T00:29:37;0.98;;;0.45;;
9364;SDS011;4722;49.340;9.800;2022-11-21T00:32:03;1.48;;;0.30;;
9364;SDS011;4722;49.340;9.800;2022-11-21T00:34:29;1.17;;;0.52;;
9364;SDS011;4722;49.340;9.800;2022-11-21T00:36:55;4.78;;;1.05;;
9364;SDS011;4722;49.340;9.800;2022-11-21T00:39:21;0.43;;;0.30;;
9364;SDS011;4722;49.340;9.800;2022-11-21T00:41:47;3.28;;;0.88;;
9364;SDS011;4722;49.340;9.800;2022-11-21T00:44:13;6.93;;;0.70;;
9364;SDS011;4722;49.340;9.800;2022-11-21T00:46:41;2.40;;;0.80;;
9364;SDS011;4722;49.340;9.800;2022-11-21T00:49:07;1.58;;;0.68;;
9364;SDS011;4722;49.340;9.800;2022-11-21T00:51:33;1.73;;;1.08;;
9364;SDS011;4722;49.340;9.800;2022-11-21T00:53:59;2.20;;;0.70;;
9364;SDS011;4722;49.340;9.800;2022-11-21T00:56:25;4.55;;;0.77;;
9364;SDS011;4722;49.340;9.800;2022-11-21T00:58:51;1.30;;;0.50;;
9364;SDS011;4722;49.340;9.800;2022-11-21T01:01:17;2.30;;;0.88;;
9364;SDS011;4722;49.340;9.800;2022-11-21T01:03:43;0.85;;;0.52;;
9364;SDS011;4722;49.340;9.800;2022-11-21T01:06:10;2.15;;;0.43;;
9364;SDS011;4722;49.340;9.800;2022-11-21T01:08:39;1.02;;;0.40;;
9364;SDS011;4722;49.340;9.800;2022-11-21T01:11:06;0.68;;;0.32;;
9364;SDS011;4722;49.340;9.800;2022-11-21T01:13:33;0.30;;;0.30;;
9364;SDS011;4722;49.340;9.800;2022-11-21T01:16:06;5.60;;;1.15;;
9364;SDS011;4722;49.340;9.800;2022-11-21T01:18:33;3.25;;;0.50;;
9364;SDS011;4722;49.340;9.800;2022-11-21T01:21:02;3.25;;;0.65;;
9364;SDS011;4722;49.340;9.800;2022-11-21T01:23:29;1.75;;;0.40;;
9364;SDS011;4722;49.340;9.800;2022-11-21T01:25:59;1.75;;;0.47;;
9364;SDS011;4722;49.340;9.800;2022-11-21T01:28:25;3.47;;;0.43;;
9364;SDS011;4722;49.340;9.800;2022-11-21T01:30:51;1.05;;;0.60;;
9364;SDS011;4722;49.340;9.800;2022-11-21T01:33:17;0.45;;;0.40;;
9364;SDS011;4722;49.340;9.800;2022-11-21T01:35:43;0.57;;;0.43;;
9364;SDS011;4722;49.340;9.800;2022-11-21T01:38:09;1.88;;;0.60;;
9364;SDS011;4722;49.340;9.800;2022-11-21T01:40:38;0.40;;;0.22;;
9364;SDS011;4722;49.340;9.800;2022-11-21T01:43:11;3.03;;;0.50;;
9364;SDS011;4722;49.340;9.800;2022-11-21T01:45:49;2.75;;;0.55;;
9364;SDS011;4722;49.340;9.800;2022-11-21T01:48:16;1.27;;;0.30;;
9364;SDS011;4722;49.340;9.800;2022-11-21T01:50:42;4.45;;;0.30;;
9364;SDS011;4722;49.340;9.800;2022-11-21T01:53:08;0.82;;;0.50;;
9364;SDS011;4722;49.340;9.800;2022-11-21T01:55:34;5.32;;;0.43;;
9364;SDS011;4722;49.340;9.800;2022-11-21T01:58:00;0.52;;;0.47;;
9364;SDS011;4722;49.340;9.800;2022-11-21T02:00:27;0.60;;;0.50;;
9364;SDS011;4722;49.340;9.800;2022-11-21T02:02:56;1.10;;;0.52;;
9364;SDS011;4722;49.340;9.800;2022-11-21T02:05:23;3.35;;;0.57;;
9364;SDS011;4722;49.340;9.800;2022-11-21T02:07:51;0.22;;;0.20;;
9364;SDS011;4722;49.340;9.800;2022-11-21T02:10:18;1.52;;;0.75;;
9364;SDS011;4722;49.340;9.800;2022-11-21T02:15:10;2.00;;;0.45;;
9364;SDS011;4722;49.340;9.800;2022-11-21T02:17:37;0.30;;;0.30;;
9364;SDS011;4722;49.340;9.800;2022-11-21T02:20:06;3.70;;;0.75;;
9364;SDS011;4722;49.340;9.800;2022-11-21T02:27:30;4.72;;;0.90;;
9364;SDS011;4722;49.340;9.800;2022-11-21T02:29:57;1.73;;;0.80;;
9364;SDS011;4722;49.340;9.800;2022-11-21T02:32:23;4.35;;;0.77;;
9364;SDS011;4722;49.340;9.800;2022-11-21T02:34:50;9.52;;;0.73;;
9364;SDS011;4722;49.340;9.800;2022-11-21T02:37:16;1.65;;;1.00;;
9364;SDS011;4722;49.340;9.800;2022-11-21T02:39:42;1.05;;;0.50;;
9364;SDS011;4722;49.340;9.800;2022-11-21T02:42:11;2.83;;;0.40;;
9364;SDS011;4722;49.340;9.800;2022-11-21T02:44:42;3.67;;;0.47;;
9364;SDS011;4722;49.340;9.800;2022-11-21T02:47:11;1.23;;;0.70;;
9364;SDS011;4722;49.340;9.800;2022-11-21T02:49:54;1.15;;;0.52;;
9364;SDS011;4722;49.340;9.800;2022-11-21T02:52:21;0.90;;;0.47;;
9364;SDS011;4722;49.340;9.800;2022-11-21T02:54:47;3.50;;;0.60;;
9364;SDS011;4722;49.340;9.800;2022-11-21T02:57:13;6.13;;;0.63;;
9364;SDS011;4722;49.340;9.800;2022-11-21T02:59:39;2.22;;;0.47;;
9364;SDS011;4722;49.340;9.800;2022-11-21T03:02:04;1.13;;;0.45;;
9364;SDS011;4722;49.340;9.800;2022-11-21T03:04:30;0.57;;;0.38;;
9364;SDS011;4722;49.340;9.800;2022-11-21T03:06:56;0.68;;;0.50;;
9364;SDS011;4722;49.340;9.800;2022-11-21T03:09:23;0.30;;;0.22;;
9364;SDS011;4722;49.340;9.800;2022-11-21T03:11:49;2.85;;;0.60;;
9364;SDS011;4722;49.340;9.800;2022-11-21T03:14:14;0.60;;;0.30;;
9364;SDS011;4722;49.340;9.800;2022-11-21T03:16:40;0.28;;;0.28;;
9364;SDS011;4722;49.340;9.800;2022-11-21T03:19:06;0.20;;;0.20;;
9364;SDS011;4722;49.340;9.800;2022-11-21T03:21:32;0.20;;;0.20;;
9364;SDS011;4722;49.340;9.800;2022-11-21T03:23:58;0.20;;;0.20;;
9364;SDS011;4722;49.340;9.800;2022-11-21T03:26:24;0.73;;;0.30;;
9364;SDS011;4722;49.340;9.800;2022-11-21T03:28:50;5.03;;;0.40;;
9364;SDS011;4722;49.340;9.800;2022-11-21T03:31:16;1.02;;;0.35;;
9364;SDS011;4722;49.340;9.800;2022-11-21T03:33:42;0.93;;;0.30;;
9364;SDS011;4722;49.340;9.800;2022-11-21T03:36:08;0.10;;;0.10;;
9364;SDS011;4722;49.340;9.800;2022-11-21T03:38:34;0.20;;;0.20;;
9364;SDS011;4722;49.340;9.800;2022-11-21T03:41:04;0.70;;;0.35;;
9364;SDS011;4722;49.340;9.800;2022-11-21T03:43:50;5.28;;;0.38;;
9364;SDS011;4722;49.340;9.800;2022-11-21T03:46:16;0.55;;;0.30;;
9364;SDS011;4722;49.340;9.800;2022-11-21T03:48:42;0.20;;;0.20;;
9364;SDS011;4722;49.340;9.800;2022-11-21T03:51:07;1.15;;;0.38;;
9364;SDS011;4722;49.340;9.800;2022-11-21T03:53:33;0.30;;;0.20;;
9364;SDS011;4722;49.340;9.800;2022-11-21T03:55:59;1.15;;;0.50;;
9364;SDS011;4722;49.340;9.800;2022-11-21T03:58:25;2.42;;;0.35;;
9364;SDS011;4722;49.340;9.800;2022-11-21T04:00:51;0.52;;;0.47;;
9364;SDS011;4722;49.340;9.800;2022-11-21T04:03:17;0.55;;;0.38;;
9364;SDS011;4722;49.340;9.800;2022-11-21T04:05:43;2.53;;;0.50;;
9364;SDS011;4722;49.340;9.800;2022-11-21T04:08:09;1.17;;;0.25;;
9364;SDS011;4722;49.340;9.800;2022-11-21T04:10:35;0.82;;;0.30;;
9364;SDS011;4722;49.340;9.800;2022-11-21T04:13:01;1.27;;;0.40;;
9364;SDS011;4722;49.340;9.800;2022-11-21T04:15:27;1.30;;;0.45;;
9364;SDS011;4722;49.340;9.800;2022-11-21T04:17:53;1.02;;;0.30;;
9364;SDS011;4722;49.340;9.800;2022-11-21T04:20:19;0.17;;;0.17;;
9364;SDS011;4722;49.340;9.800;2022-11-21T04:22:45;0.30;;;0.30;;
9364;SDS011;4722;49.340;9.800;2022-11-21T04:25:11;0.52;;;0.28;;
9364;SDS011;4722;49.340;9.800;2022-11-21T04:27:37;0.82;;;0.30;;
9364;SDS011;4722;49.340;9.800;2022-11-21T04:30:04;0.63;;;0.20;;
9364;SDS011;4722;49.340;9.800;2022-11-21T04:32:30;2.25;;;0.40;;
9364;SDS011;4722;49.340;9.800;2022-11-21T04:34:56;0.20;;;0.20;;
9364;SDS011;4722;49.340;9.800;2022-11-21T04:37:22;0.38;;;0.32;;
9364;SDS011;4722;49.340;9.800;2022-11-21T04:39:48;0.28;;;0.28;;
9364;SDS011;4722;49.340;9.800;2022-11-21T04:42:14;0.40;;;0.40;;
9364;SDS011;4722;49.340;9.800;2022-11-21T04:44:40;1.58;;;0.20;;
9364;SDS011;4722;49.340;9.800;2022-11-21T04:47:06;0.22;;;0.22;;
9364;SDS011;4722;49.340;9.800;2022-11-21T04:49:32;1.60;;;0.30;;
9364;SDS011;4722;49.340;9.800;2022-11-21T04:51:58;0.75;;;0.40;;
9364;SDS011;4722;49.340;9.800;2022-11-21T04:54:24;2.08;;;0.47;;
9364;SDS011;4722;49.340;9.800;2022-11-21T04:56:50;0.65;;;0.30;;
9364;SDS011;4722;49.340;9.800;2022-11-21T04:59:16;0.25;;;0.25;;
9364;SDS011;4722;49.340;9.800;2022-11-21T05:01:42;1.25;;;0.40;;
9364;SDS011;4722;49.340;9.800;2022-11-21T05:04:08;1.50;;;0.50;;
9364;SDS011;4722;49.340;9.800;2022-11-21T05:06:34;2.33;;;0.63;;
9364;SDS011;4722;49.340;9.800;2022-11-21T05:09:00;4.70;;;0.50;;
9364;SDS011;4722;49.340;9.800;2022-11-21T05:11:26;1.45;;;0.40;;
9364;SDS011;4722;49.340;9.800;2022-11-21T05:14:10;1.83;;;0.60;;
9364;SDS011;4722;49.340;9.800;2022-11-21T05:16:36;0.65;;;0.50;;
9364;SDS011;4722;49.340;9.800;2022-11-21T05:19:02;0.60;;;0.40;;
9364;SDS011;4722;49.340;9.800;2022-11-21T05:21:28;5.90;;;0.60;;
9364;SDS011;4722;49.340;9.800;2022-11-21T05:23:54;4.60;;;0.75;;
9364;SDS011;4722;49.340;9.800;2022-11-21T05:26:20;1.10;;;0.50;;
9364;SDS011;4722;49.340;9.800;2022-11-21T05:28:46;0.57;;;0.40;;
9364;SDS011;4722;49.340;9.800;2022-11-21T05:31:12;1.50;;;0.75;;
9364;SDS011;4722;49.340;9.800;2022-11-21T05:33:38;1.95;;;0.82;;
9364;SDS011;4722;49.340;9.800;2022-11-21T05:36:04;2.97;;;0.50;;
9364;SDS011;4722;49.340;9.800;2022-11-21T05:38:30;0.95;;;0.30;;
9364;SDS011;4722;49.340;9.800;2022-11-21T05:40:56;4.40;;;1.15;;
9364;SDS011;4722;49.340;9.800;2022-11-21T05:43:22;1.10;;;0.45;;
9364;SDS011;4722;49.340;9.800;2022-11-21T05:46:07;1.48;;;0.32;;
9364;SDS011;4722;49.340;9.800;2022-11-21T05:48:33;0.52;;;0.32;;
9364;SDS011;4722;49.340;9.800;2022-11-21T05:51:00;1.05;;;0.40;;
9364;SDS011;4722;49.340;9.800;2022-11-21T05:53:26;1.65;;;0.20;;
9364;SDS011;4722;49.340;9.800;2022-11-21T05:55:52;0.40;;;0.38;;
9364;SDS011;4722;49.340;9.800;2022-11-21T05:58:18;2.85;;;0.68;;
9364;SDS011;4722;49.340;9.800;2022-11-21T06:00:44;0.82;;;0.40;;
9364;SDS011;4722;49.340;9.800;2022-11-21T06:03:10;0.50;;;0.30;;
9364;SDS011;4722;49.340;9.800;2022-11-21T06:06:14;0.65;;;0.40;;
9364;SDS011;4722;49.340;9.800;2022-11-21T06:11:04;0.68;;;0.57;;
9364;SDS011;4722;49.340;9.800;2022-11-21T06:13:31;0.68;;;0.63;;
9364;SDS011;4722;49.340;9.800;2022-11-21T06:16:05;5.53;;;2.05;;
9364;SDS011;4722;49.340;9.800;2022-11-21T06:18:33;2.95;;;1.27;;
9364;SDS011;4722;49.340;9.800;2022-11-21T06:21:03;1.42;;;1.00;;
9364;SDS011;4722;49.340;9.800;2022-11-21T06:23:29;2.05;;;1.08;;
9364;SDS011;4722;49.340;9.800;2022-11-21T06:25:56;2.00;;;0.85;;
9364;SDS011;4722;49.340;9.800;2022-11-21T06:28:23;1.35;;;0.82;;
9364;SDS011;4722;49.340;9.800;2022-11-21T06:30:49;3.28;;;1.25;;
9364;SDS011;4722;49.340;9.800;2022-11-21T06:33:16;2.92;;;0.75;;
9364;SDS011;4722;49.340;9.800;2022-11-21T06:35:42;2.35;;;0.60;;
9364;SDS011;4722;49.340;9.800;2022-11-21T06:38:09;1.25;;;0.60;;
9364;SDS011;4722;49.340;9.800;2022-11-21T06:40:37;4.00;;;1.08;;
9364;SDS011;4722;49.340;9.800;2022-11-21T06:43:03;3.28;;;0.93;;
9364;SDS011;4722;49.340;9.800;2022-11-21T06:45:29;3.30;;;0.68;;
9364;SDS011;4722;49.340;9.800;2022-11-21T06:47:55;1.30;;;0.75;;
9364;SDS011;4722;49.340;9.800;2022-11-21T06:50:21;1.88;;;0.43;;
9364;SDS011;4722;49.340;9.800;2022-11-21T06:52:47;2.38;;;0.70;;
9364;SDS011;4722;49.340;9.800;2022-11-21T06:55:13;0.90;;;0.60;;
9364;SDS011;4722;49.340;9.800;2022-11-21T06:57:39;3.00;;;0.90;;
9364;SDS011;4722;49.340;9.800;2022-11-21T07:00:05;1.02;;;0.55;;
9364;SDS011;4722;49.340;9.800;2022-11-21T07:02:31;1.10;;;0.50;;
9364;SDS011;4722;49.340;9.800;2022-11-21T07:04:57;1.42;;;1.13;;
9364;SDS011;4722;49.340;9.800;2022-11-21T07:07:23;2.17;;;1.05;;
9364;SDS011;4722;49.340;9.800;2022-11-21T07:09:49;2.25;;;1.40;;
9364;SDS011;4722;49.340;9.800;2022-11-21T07:12:15;1.90;;;1.10;;
9364;SDS011;4722;49.340;9.800;2022-11-21T07:14:59;0.90;;;0.60;;
9364;SDS011;4722;49.340;9.800;2022-11-21T07:17:25;0.98;;;0.77;;
9364;SDS011;4722;49.340;9.800;2022-11-21T07:19:51;4.75;;;0.80;;
9364;SDS011;4722;49.340;9.800;2022-11-21T07:22:17;0.55;;;0.50;;
9364;SDS011;4722;49.340;9.800;2022-11-21T07:24:43;1.90;;;1.02;;
9364;SDS011;4722;49.340;9.800;2022-11-21T07:27:09;3.45;;;0.80;;
9364;SDS011;4722;49.340;9.800;2022-11-21T07:29:35;2.03;;;0.90;;
9364;SDS011;4722;49.340;9.800;2022-11-21T07:32:01;2.72;;;1.10;;
9364;SDS011;4722;49.340;9.800;2022-11-21T07:34:27;2.20;;;0.95;;
9364;SDS011;4722;49.340;9.800;2022-11-21T07:36:53;2.50;;;1.42;;
9364;SDS011;4722;49.340;9.800;2022-11-21T07:39:19;3.60;;;1.20;;
9364;SDS011;4722;49.340;9.800;2022-11-21T07:41:45;4.55;;;2.53;;
9364;SDS011;4722;49.340;9.800;2022-11-21T07:44:11;3.50;;;1.85;;
9364;SDS011;4722;49.340;9.800;2022-11-21T07:46:37;3.25;;;1.27;;
9364;SDS011;4722;49.340;9.800;2022-11-21T07:49:03;7.22;;;1.80;;
9364;SDS011;4722;49.340;9.800;2022-11-21T07:51:29;4.65;;;1.60;;
9364;SDS011;4722;49.340;9.800;2022-11-21T07:53:54;7.97;;;1.38;;
9364;SDS011;4722;49.340;9.800;2022-11-21T07:56:20;8.60;;;1.45;;
9364;SDS011;4722;49.340;9.800;2022-11-21T07:58:50;5.53;;;1.17;;
9364;SDS011;4722;49.340;9.800;2022-11-21T08:01:16;1.98;;;1.00;;
9364;SDS011;4722;49.340;9.800;2022-11-21T08:03:42;1.55;;;1.00;;
9364;SDS011;4722;49.340;9.800;2022-11-21T08:06:08;2.38;;;1.25;;
9364;SDS011;4722;49.340;9.800;2022-11-21T08:08:35;3.40;;;1.27;;
9364;SDS011;4722;49.340;9.800;2022-11-21T08:11:05;6.45;;;1.77;;
9364;SDS011;4722;49.340;9.800;2022-11-21T08:13:32;1.90;;;0.73;;
9364;SDS011;4722;49.340;9.800;2022-11-21T08:15:58;4.32;;;1.25;;
9364;SDS011;4722;49.340;9.800;2022-11-21T08:18:24;4.95;;;0.80;;
9364;SDS011;4722;49.340;9.800;2022-11-21T08:20:50;2.47;;;1.15;;
9364;SDS011;4722;49.340;9.800;2022-11-21T08:23:16;4.13;;;0.90;;
9364;SDS011;4722;49.340;9.800;2022-11-21T08:25:42;4.28;;;1.20;;
9364;SDS011;4722;49.340;9.800;2022-11-21T08:28:09;2.33;;;0.90;;
9364;SDS011;4722;49.340;9.800;2022-11-21T08:30:36;3.35;;;0.90;;
9364;SDS011;4722;49.340;9.800;2022-11-21T08:33:03;3.88;;;0.73;;
9364;SDS011;4722;49.340;9.800;2022-11-21T08:35:29;1.63;;;0.80;;
9364;SDS011;4722;49.340;9.800;2022-11-21T08:37:58;2.13;;;1.20;;
9364;SDS011;4722;49.340;9.800;2022-11-21T08:40:26;5.07;;;1.10;;
9364;SDS011;4722;49.340;9.800;2022-11-21T08:42:58;6.28;;;1.00;;
9364;SDS011;4722;49.340;9.800;2022-11-21T08:45:24;10.73;;;1.13;;
9364;SDS011;4722;49.340;9.800;2022-11-21T08:47:51;7.18;;;1.25;;
9364;SDS011;4722;49.340;9.800;2022-11-21T08:50:17;3.20;;;1.08;;
9364;SDS011;4722;49.340;9.800;2022-11-21T08:52:43;2.25;;;0.95;;
9364;SDS011;4722;49.340;9.800;2022-11-21T08:55:08;3.15;;;0.88;;
9364;SDS011;4722;49.340;9.800;2022-11-21T08:57:38;3.22;;;0.85;;
9364;SDS011;4722;49.340;9.800;2022-11-21T09:00:04;4.65;;;1.00;;
9364;SDS011;4722;49.340;9.800;2022-11-21T09:02:30;1.48;;;1.13;;
9364;SDS011;4722;49.340;9.800;2022-11-21T09:04:56;2.60;;;1.17;;
9364;SDS011;4722;49.340;9.800;2022-11-21T09:07:22;5.78;;;1.15;;
9364;SDS011;4722;49.340;9.800;2022-11-21T09:09:48;4.13;;;0.40;;
9364;SDS011;4722;49.340;9.800;2022-11-21T09:12:14;2.13;;;0.80;;
9364;SDS011;4722;49.340;9.800;2022-11-21T09:14:40;2.60;;;1.25;;
9364;SDS011;4722;49.340;9.800;2022-11-21T09:17:25;18.15;;;2.85;;
9364;SDS011;4722;49.340;9.800;2022-11-21T09:20:09;5.75;;;0.95;;
9364;SDS011;4722;49.340;9.800;2022-11-21T09:22:35;0.93;;;0.60;;
9364;SDS011;4722;49.340;9.800;2022-11-21T09:25:01;7.97;;;1.15;;
9364;SDS011;4722;49.340;9.800;2022-11-21T09:27:28;5.28;;;1.17;;
9364;SDS011;4722;49.340;9.800;2022-11-21T09:29:54;1.65;;;1.00;;
9364;SDS011;4722;49.340;9.800;2022-11-21T09:32:20;7.22;;;1.92;;
9364;SDS011;4722;49.340;9.800;2022-11-21T09:34:46;3.90;;;1.23;;
9364;SDS011;4722;49.340;9.800;2022-11-21T09:37:12;5.35;;;0.88;;
9364;SDS011;4722;49.340;9.800;2022-11-21T09:39:38;2.33;;;0.63;;
9364;SDS011;4722;49.340;9.800;2022-11-21T09:47:51;1.65;;;0.50;;
9364;SDS011;4722;49.340;9.800;2022-11-21T09:53:12;3.40;;;1.30;;
9364;SDS011;4722;49.340;9.800;2022-11-21T09:55:44;2.08;;;0.75;;
9364;SDS011;4722;49.340;9.800;2022-11-21T10:00:49;0.63;;;0.55;;
9364;SDS011;4722;49.340;9.800;2022-11-21T10:03:15;3.53;;;0.80;;
9364;SDS011;4722;49.340;9.800;2022-11-21T10:08:26;1.63;;;0.80;;
9364;SDS011;4722;49.340;9.800;2022-11-21T10:10:55;8.07;;;1.08;;
9364;SDS011;4722;49.340;9.800;2022-11-21T10:13:27;2.42;;;1.13;;
9364;SDS011;4722;49.340;9.800;2022-11-21T10:15:59;7.95;;;2.38;;
9364;SDS011;4722;49.340;9.800;2022-11-21T10:21:49;3.22;;;0.95;;
9364;SDS011;4722;49.340;9.800;2022-11-21T10:29:03;1.02;;;0.30;;
9364;SDS011;4722;49.340;9.800;2022-11-21T10:31:35;2.78;;;0.70;;
9364;SDS011;4722;49.340;9.800;2022-11-21T10:34:02;5.10;;;0.50;;
9364;SDS011;4722;49.340;9.800;2022-11-21T10:36:37;0.90;;;0.30;;
9364;SDS011;4722;49.340;9.800;2022-11-21T10:39:17;2.00;;;0.75;;
9364;SDS011;4722;49.340;9.800;2022-11-21T10:44:30;2.10;;;1.08;;
9364;SDS011;4722;49.340;9.800;2022-11-21T10:47:18;5.10;;;1.00;;
9364;SDS011;4722;49.340;9.800;2022-11-21T10:52:49;2.60;;;1.15;;
9364;SDS011;4722;49.340;9.800;2022-11-21T10:55:15;6.15;;;0.85;;
9364;SDS011;4722;49.340;9.800;2022-11-21T10:57:43;2.47;;;0.90;;
9364;SDS011;4722;49.340;9.800;2022-11-21T11:02:39;3.65;;;0.55;;
9364;SDS011;4722;49.340;9.800;2022-11-21T11:05:16;6.65;;;1.27;;
9364;SDS011;4722;49.340;9.800;2022-11-21T11:07:57;3.13;;;0.20;;
9364;SDS011;4722;49.340;9.800;2022-11-21T11:10:24;1.63;;;0.93;;
9364;SDS011;4722;49.340;9.800;2022-11-21T11:12:50;8.70;;;0.80;;
9364;SDS011;4722;49.340;9.800;2022-11-21T11:15:36;4.72;;;0.38;;
9364;SDS011;4722;49.340;9.800;2022-11-21T11:18:03;2.78;;;0.75;;
9364;SDS011;4722;49.340;9.800;2022-11-21T11:23:23;2.08;;;0.55;;
9364;SDS011;4722;49.340;9.800;2022-11-21T11:25:51;1.00;;;0.25;;
9364;SDS011;4722;49.340;9.800;2022-11-21T11:28:18;0.80;;;0.43;;
9364;SDS011;4722;49.340;9.800;2022-11-21T11:30:44;9.85;;;0.55;;
9364;SDS011;4722;49.340;9.800;2022-11-21T11:33:26;1.55;;;0.47;;
9364;SDS011;4722;49.340;9.800;2022-11-21T11:35:54;1.43;;;0.30;;
9364;SDS011;4722;49.340;9.800;2022-11-21T11:38:24;1.83;;;0.82;;
9364;SDS011;4722;49.340;9.800;2022-11-21T11:40:51;0.65;;;0.30;;
9364;SDS011;4722;49.340;9.800;2022-11-21T11:51:55;3.65;;;0.68;;
9364;SDS011;4722;49.340;9.800;2022-11-21T11:54:25;4.37;;;0.57;;
9364;SDS011;4722;49.340;9.800;2022-11-21T11:56:51;4.88;;;0.90;;
9364;SDS011;4722;49.340;9.800;2022-11-21T11:59:22;3.08;;;0.40;;
9364;SDS011;4722;49.340;9.800;2022-11-21T12:04:15;4.15;;;0.70;;
9364;SDS011;4722;49.340;9.800;2022-11-21T12:12:22;1.33;;;0.20;;
9364;SDS011;4722;49.340;9.800;2022-11-21T12:20:26;0.65;;;0.40;;
9364;SDS011;4722;49.340;9.800;2022-11-21T12:22:53;0.95;;;0.65;;
9364;SDS011;4722;49.340;9.800;2022-11-21T12:25:20;2.13;;;0.40;;
9364;SDS011;4722;49.340;9.800;2022-11-21T12:27:50;0.90;;;0.28;;
9364;SDS011;4722;49.340;9.800;2022-11-21T12:30:21;2.72;;;0.60;;
9364;SDS011;4722;49.340;9.800;2022-11-21T12:35:29;6.93;;;0.65;;
9364;SDS011;4722;49.340;9.800;2022-11-21T12:43:12;0.60;;;0.32;;
9364;SDS011;4722;49.340;9.800;2022-11-21T12:45:45;6.00;;;0.60;;
9364;SDS011;4722;49.340;9.800;2022-11-21T12:48:14;7.57;;;0.77;;
9364;SDS011;4722;49.340;9.800;2022-11-21T12:56:51;2.45;;;0.52;;
9364;SDS011;4722;49.340;9.800;2022-11-21T12:59:20;0.20;;;0.20;;
9364;SDS011;4722;49.340;9.800;2022-11-21T13:04:25;4.13;;;0.80;;
9364;SDS011;4722;49.340;9.800;2022-11-21T13:06:53;5.60;;;0.88;;
9364;SDS011;4722;49.340;9.800;2022-11-21T13:09:20;8.85;;;0.85;;
9364;SDS011;4722;49.340;9.800;2022-11-21T13:19:48;1.10;;;0.52;;
9364;SDS011;4722;49.340;9.800;2022-11-21T13:24:59;5.47;;;0.52;;
9364;SDS011;4722;49.340;9.800;2022-11-21T13:32:39;3.72;;;0.80;;
9364;SDS011;4722;49.340;9.800;2022-11-21T13:38:00;0.40;;;0.20;;
9364;SDS011;4722;49.340;9.800;2022-11-21T13:45:56;1.55;;;0.65;;
9364;SDS011;4722;49.340;9.800;2022-11-21T13:56:30;5.45;;;1.45;;
9364;SDS011;4722;49.340;9.800;2022-11-21T14:06:40;4.43;;;0.55;;
9364;SDS011;4722;49.340;9.800;2022-11-21T14:11:46;3.05;;;0.40;;
9364;SDS011;4722;49.340;9.800;2022-11-21T14:17:07;1.42;;;0.70;;
9364;SDS011;4722;49.340;9.800;2022-11-21T14:19:35;4.20;;;0.77;;
9364;SDS011;4722;49.340;9.800;2022-11-21T14:22:01;2.97;;;0.77;;
9364;SDS011;4722;49.340;9.800;2022-11-21T14:24:27;0.95;;;0.35;;
9364;SDS011;4722;49.340;9.800;2022-11-21T14:26:53;1.00;;;0.40;;
9364;SDS011;4722;49.340;9.800;2022-11-21T14:29:24;0.55;;;0.30;;
9364;SDS011;4722;49.340;9.800;2022-11-21T14:31:50;1.75;;;0.30;;
9364;SDS011;4722;49.340;9.800;2022-11-21T14:34:26;1.30;;;0.45;;
9364;SDS011;4722;49.340;9.800;2022-11-21T14:36:53;1.02;;;0.30;;
9364;SDS011;4722;49.340;9.800;2022-11-21T14:39:20;0.55;;;0.22;;
9364;SDS011;4722;49.340;9.800;2022-11-21T14:41:48;3.80;;;0.40;;
9364;SDS011;4722;49.340;9.800;2022-11-21T14:44:16;1.90;;;0.38;;
9364;SDS011;4722;49.340;9.800;2022-11-21T14:46:44;0.95;;;0.40;;
9364;SDS011;4722;49.340;9.800;2022-11-21T14:51:50;3.60;;;0.38;;
9364;SDS011;4722;49.340;9.800;2022-11-21T14:54:17;1.92;;;0.40;;
9364;SDS011;4722;49.340;9.800;2022-11-21T14:56:46;5.15;;;0.50;;
9364;SDS011;4722;49.340;9.800;2022-11-21T14:59:16;2.53;;;0.90;;
9364;SDS011;4722;49.340;9.800;2022-11-21T15:01:53;2.72;;;0.80;;
9364;SDS011;4722;49.340;9.800;2022-11-21T15:04:23;3.08;;;0.82;;
9364;SDS011;4722;49.340;9.800;2022-11-21T15:06:50;1.35;;;0.28;;
9364;SDS011;4722;49.340;9.800;2022-11-21T15:09:17;2.38;;;0.50;;
9364;SDS011;4722;49.340;9.800;2022-11-21T15:11:50;4.80;;;0.52;;
9364;SDS011;4722;49.340;9.800;2022-11-21T15:14:22;3.45;;;0.75;;
9364;SDS011;4722;49.340;9.800;2022-11-21T15:16:50;3.90;;;0.40;;
9364;SDS011;4722;49.340;9.800;2022-11-21T15:19:20;4.60;;;0.70;;
9364;SDS011;4722;49.340;9.800;2022-11-21T15:21:47;7.60;;;0.95;;
9364;SDS011;4722;49.340;9.800;2022-11-21T15:24:34;5.57;;;2.53;;
9364;SDS011;4722;49.340;9.800;2022-11-21T15:27:21;5.28;;;2.35;;
9364;SDS011;4722;49.340;9.800;2022-11-21T15:29:47;5.70;;;1.58;;
9364;SDS011;4722;49.340;9.800;2022-11-21T15:32:13;2.17;;;1.10;;
9364;SDS011;4722;49.340;9.800;2022-11-21T15:34:39;3.60;;;1.75;;
9364;SDS011;4722;49.340;9.800;2022-11-21T15:37:11;2.65;;;0.85;;
9364;SDS011;4722;49.340;9.800;2022-11-21T15:39:43;2.67;;;1.30;;
9364;SDS011;4722;49.340;9.800;2022-11-21T15:44:58;4.13;;;2.00;;
9364;SDS011;4722;49.340;9.800;2022-11-21T15:47:24;2.03;;;1.17;;
9364;SDS011;4722;49.340;9.800;2022-11-21T15:49:51;3.80;;;0.82;;
9364;SDS011;4722;49.340;9.800;2022-11-21T15:52:17;12.10;;;2.55;;
9364;SDS011;4722;49.340;9.800;2022-11-21T15:54:43;8.35;;;3.65;;
9364;SDS011;4722;49.340;9.800;2022-11-21T15:57:09;8.98;;;2.08;;
9364;SDS011;4722;49.340;9.800;2022-11-21T15:59:36;4.20;;;1.15;;
9364;SDS011;4722;49.340;9.800;2022-11-21T16:02:02;2.75;;;1.35;;
9364;SDS011;4722;49.340;9.800;2022-11-21T16:04:28;3.60;;;0.75;;
9364;SDS011;4722;49.340;9.800;2022-11-21T16:06:54;2.00;;;0.70;;
9364;SDS011;4722;49.340;9.800;2022-11-21T16:09:20;3.40;;;1.20;;
9364;SDS011;4722;49.340;9.800;2022-11-21T16:11:47;3.75;;;1.38;;
9364;SDS011;4722;49.340;9.800;2022-11-21T16:14:14;11.27;;;4.07;;
9364;SDS011;4722;49.340;9.800;2022-11-21T16:16:41;30.73;;;7.78;;
9364;SDS011;4722;49.340;9.800;2022-11-21T16:19:11;23.63;;;10.20;;
9364;SDS011;4722;49.340;9.800;2022-11-21T16:21:37;23.98;;;10.32;;
9364;SDS011;4722;49.340;9.800;2022-11-21T16:24:03;22.15;;;6.20;;
9364;SDS011;4722;49.340;9.800;2022-11-21T16:26:29;10.73;;;4.25;;
9364;SDS011;4722;49.340;9.800;2022-11-21T16:28:57;9.25;;;3.90;;
9364;SDS011;4722;49.340;9.800;2022-11-21T16:31:27;4.75;;;2.78;;
9364;SDS011;4722;49.340;9.800;2022-11-21T16:33:54;5.30;;;2.22;;
9364;SDS011;4722;49.340;9.800;2022-11-21T16:36:20;2.63;;;0.77;;
9364;SDS011;4722;49.340;9.800;2022-11-21T16:38:47;5.55;;;1.55;;
9364;SDS011;4722;49.340;9.800;2022-11-21T16:41:13;7.85;;;2.13;;
9364;SDS011;4722;49.340;9.800;2022-11-21T16:43:44;2.40;;;1.38;;
9364;SDS011;4722;49.340;9.800;2022-11-21T16:46:11;4.35;;;1.83;;
9364;SDS011;4722;49.340;9.800;2022-11-21T16:48:37;7.63;;;2.45;;
9364;SDS011;4722;49.340;9.800;2022-11-21T16:53:36;4.75;;;2.88;;
9364;SDS011;4722;49.340;9.800;2022-11-21T16:56:02;19.55;;;5.30;;
9364;SDS011;4722;49.340;9.800;2022-11-21T16:58:28;3.55;;;1.70;;
9364;SDS011;4722;49.340;9.800;2022-11-21T17:00:54;2.78;;;1.75;;
9364;SDS011;4722;49.340;9.800;2022-11-21T17:03:20;2.60;;;1.38;;
9364;SDS011;4722;49.340;9.800;2022-11-21T17:05:56;3.05;;;0.93;;
9364;SDS011;4722;49.340;9.800;2022-11-21T17:08:22;2.05;;;1.45;;
9364;SDS011;4722;49.340;9.800;2022-11-21T17:10:48;7.18;;;1.50;;
9364;SDS011;4722;49.340;9.800;2022-11-21T17:13:14;3.92;;;1.10;;
9364;SDS011;4722;49.340;9.800;2022-11-21T17:15:40;1.67;;;1.08;;
9364;SDS011;4722;49.340;9.800;2022-11-21T17:18:06;1.02;;;0.75;;
9364;SDS011;4722;49.340;9.800;2022-11-21T17:20:32;3.75;;;1.65;;
9364;SDS011;4722;49.340;9.800;2022-11-21T17:22:58;5.78;;;1.67;;
9364;SDS011;4722;49.340;9.800;2022-11-21T17:25:24;1.77;;;1.05;;
9364;SDS011;4722;49.340;9.800;2022-11-21T17:27:50;2.92;;;1.45;;
9364;SDS011;4722;49.340;9.800;2022-11-21T17:30:16;2.65;;;1.40;;
9364;SDS011;4722;49.340;9.800;2022-11-21T17:32:42;3.45;;;1.23;;